Qandahar, Afghanistan
Current Conditions -  °F | °C
As of 2:55 AM on Sunday 21 Dec 2014 (Local Time) from KQHN Reporting Station
Broken Clouds Broken Clouds  
Wind Chill: 33°   Ceiling: 18000
Heat Index: 37°   Visibility: 6mi
Dew Point: 10°   Wind: 6mph
Humidity: 33%   Direction: NA
Pressure: 30.09"   Gusts: NA
Location:  31.61°N, 65.69°E
Report Text: KQHN 202255Z VRB05KT 9999 FEW120 BKN180 03/M12 A3009 RMK SLP137 Q1019 DA2490
Loading
Personal Weather Stations






























Interactive Weather Map New forecast layout! Learn more

10-Day Weather Forecast

Advertisements
Track Severe Weather on mobile